createdAt,value
2023-02-28T00:03:38.233Z,6.72
2023-02-28T00:08:40.331Z,8.63
2023-02-28T00:13:47.374Z,9.02
2023-02-28T00:18:49.727Z,9.65
2023-02-28T00:23:51.164Z,9.57
2023-02-28T00:28:53.749Z,9.45
2023-02-28T00:33:55.204Z,8.60
2023-02-28T00:38:56.662Z,9.32
2023-02-28T00:43:58.069Z,8.32
2023-02-28T00:48:59.538Z,9.27
2023-02-28T00:54:00.971Z,7.55
2023-02-28T00:59:02.467Z,7.82
2023-02-28T01:04:04.167Z,8.70
2023-02-28T01:09:07.356Z,7.07
2023-02-28T01:19:12.433Z,8.98
2023-02-28T01:24:13.970Z,8.13
2023-02-28T01:29:16.202Z,7.80
2023-02-28T01:34:19.983Z,7.95
2023-02-28T01:39:21.433Z,10.88
2023-02-28T01:45:00.712Z,8.35
2023-02-28T01:50:06.781Z,7.88
2023-02-28T01:55:09.287Z,7.38
2023-02-28T02:00:14.101Z,9.90
2023-02-28T02:05:24.554Z,8.88
2023-02-28T02:10:33.370Z,11.52
2023-02-28T02:15:43.016Z,8.00
2023-02-28T02:21:16.676Z,9.20
2023-02-28T02:26:30.321Z,9.70
2023-02-28T02:31:57.696Z,9.77
2023-02-28T02:37:06.307Z,10.02
2023-02-28T02:42:16.938Z,8.77
2023-02-28T02:47:22.572Z,10.32
2023-02-28T02:52:30.782Z,8.70
2023-02-28T02:57:41.360Z,10.50
2023-02-28T03:02:45.546Z,9.30
2023-02-28T03:07:46.985Z,9.65
2023-02-28T03:13:20.013Z,9.70
2023-02-28T03:18:52.503Z,7.00
2023-02-28T03:24:06.144Z,8.68
2023-02-28T03:29:22.225Z,8.85
2023-02-28T03:34:30.386Z,11.07
2023-02-28T03:39:43.057Z,10.68
2023-02-28T03:45:21.942Z,9.95
2023-02-28T03:50:28.419Z,9.10
2023-02-28T03:55:35.577Z,8.30
2023-02-28T04:00:40.166Z,10.88
2023-02-28T04:05:50.974Z,10.18
2023-02-28T04:11:18.048Z,11.70
2023-02-28T04:16:34.000Z,8.93
2023-02-28T04:21:39.972Z,7.65
2023-02-28T04:26:47.955Z,12.60
2023-02-28T04:31:49.816Z,9.55
2023-02-28T04:37:10.057Z,9.90
2023-02-28T04:42:14.162Z,12.85
2023-02-28T04:47:15.701Z,12.27
2023-02-28T04:52:17.113Z,12.23
2023-02-28T04:57:18.560Z,10.57
2023-02-28T05:02:21.959Z,11.65
2023-02-28T05:07:23.409Z,12.05
2023-02-28T05:12:24.868Z,10.90
2023-02-28T05:17:26.265Z,12.77
2023-02-28T05:22:27.711Z,15.02
2023-02-28T05:27:29.221Z,13.98
2023-02-28T05:32:30.833Z,12.70
2023-02-28T05:37:32.294Z,10.50
2023-02-28T05:42:34.515Z,12.82
2023-02-28T05:47:36.359Z,12.48
2023-02-28T05:52:38.248Z,13.27
2023-02-28T05:57:39.654Z,15.88
2023-02-28T06:02:41.616Z,15.45
2023-02-28T06:07:44.018Z,12.20
2023-02-28T06:12:45.452Z,12.90
2023-02-28T06:17:47.393Z,14.38
2023-02-28T06:22:51.603Z,12.77
2023-02-28T06:27:53.775Z,12.07
2023-02-28T06:32:55.632Z,13.70
2023-02-28T06:37:57.175Z,12.27
2023-02-28T06:42:58.582Z,13.07
2023-02-28T06:48:01.084Z,15.13
2023-02-28T06:53:02.492Z,14.80
2023-02-28T06:58:03.911Z,13.15
2023-02-28T07:03:05.307Z,15.07
2023-02-28T07:08:07.024Z,14.90
2023-02-28T07:13:09.763Z,18.38
2023-02-28T07:18:11.189Z,15.15
2023-02-28T07:23:12.586Z,13.85
2023-02-28T07:28:15.034Z,16.38
2023-02-28T07:33:16.446Z,15.40
2023-02-28T07:38:17.907Z,14.80
2023-02-28T07:43:19.300Z,15.23
2023-02-28T07:48:20.694Z,14.50
2023-02-28T07:53:22.147Z,14.55
2023-02-28T07:58:24.792Z,13.75
2023-02-28T08:03:26.212Z,19.08
2023-02-28T08:08:32.051Z,14.30
2023-02-28T08:13:33.470Z,13.07
2023-02-28T08:18:34.962Z,13.65
2023-02-28T08:23:37.115Z,12.73
2023-02-28T08:28:38.579Z,12.20
2023-02-28T08:33:41.209Z,13.25
2023-02-28T08:38:42.599Z,12.07
2023-02-28T08:43:44.181Z,14.00
2023-02-28T08:48:46.072Z,14.75
2023-02-28T08:53:50.176Z,14.10
2023-02-28T08:58:52.131Z,14.82
2023-02-28T09:09:01.965Z,13.75
2023-02-28T09:14:04.367Z,12.60
2023-02-28T09:19:05.860Z,12.57
2023-02-28T09:24:08.015Z,14.07
2023-02-28T09:29:09.719Z,15.40
2023-02-28T09:34:11.210Z,12.38
2023-02-28T09:39:15.369Z,13.57
2023-02-28T09:44:42.363Z,10.85
2023-02-28T09:49:47.903Z,12.70
2023-02-28T09:54:49.370Z,10.38
2023-02-28T10:00:19.592Z,13.10
2023-02-28T10:05:27.328Z,14.00
2023-02-28T10:10:35.854Z,11.23
2023-02-28T10:15:37.575Z,9.82
2023-02-28T10:20:41.961Z,14.02
2023-02-28T10:25:48.956Z,12.15
2023-02-28T10:30:53.206Z,10.07
2023-02-28T10:35:55.128Z,10.30
2023-02-28T10:41:06.520Z,9.30
2023-02-28T10:46:10.720Z,8.85
2023-02-28T10:51:14.759Z,11.40
2023-02-28T10:56:19.629Z,11.38
2023-02-28T11:01:39.573Z,12.05
2023-02-28T11:06:41.226Z,9.93
2023-02-28T11:11:48.107Z,10.45
2023-02-28T11:16:51.252Z,13.05
2023-02-28T11:26:58.044Z,12.00
2023-02-28T11:32:02.392Z,13.52
2023-02-28T11:37:06.290Z,11.73
2023-02-28T11:42:54.535Z,13.95
2023-02-28T11:48:10.881Z,12.35
2023-02-28T11:53:30.579Z,14.57
2023-02-28T11:58:53.754Z,14.82
2023-02-28T12:04:17.806Z,13.52
2023-02-28T12:09:48.332Z,14.13
2023-02-28T12:15:17.967Z,12.48
2023-02-28T12:20:32.662Z,11.90
2023-02-28T12:26:08.026Z,12.60
2023-02-28T12:31:22.739Z,15.38
2023-02-28T12:36:26.627Z,14.02
2023-02-28T12:41:38.475Z,13.60
2023-02-28T12:46:45.021Z,10.43
2023-02-28T12:51:47.777Z,12.48
2023-02-28T12:56:54.067Z,11.95
2023-02-28T13:02:23.299Z,12.15
2023-02-28T13:07:37.962Z,12.48
2023-02-28T13:12:49.274Z,11.85
2023-02-28T13:17:56.896Z,11.63
2023-02-28T13:22:58.702Z,11.05
2023-02-28T13:28:04.830Z,13.32
2023-02-28T13:33:29.659Z,11.55
2023-02-28T13:38:36.989Z,15.88
2023-02-28T13:44:03.580Z,13.98
2023-02-28T13:49:26.340Z,13.65
2023-02-28T13:54:56.786Z,12.73
2023-02-28T14:00:32.902Z,13.70
2023-02-28T14:05:35.187Z,17.83
2023-02-28T14:10:46.573Z,13.50
2023-02-28T14:15:56.090Z,12.88
2023-02-28T14:21:26.564Z,17.67
2023-02-28T14:26:45.210Z,17.25
2023-02-28T14:31:59.284Z,18.55
2023-02-28T14:37:03.389Z,22.80
2023-02-28T14:42:32.321Z,16.30
2023-02-28T14:47:36.205Z,13.73
2023-02-28T14:52:37.738Z,15.25
2023-02-28T14:57:54.248Z,14.52
2023-02-28T15:02:57.423Z,18.80
2023-02-28T15:13:20.041Z,14.35
2023-02-28T15:18:21.420Z,16.63
2023-02-28T15:23:23.403Z,14.45
2023-02-28T15:28:25.382Z,14.38
2023-02-28T15:33:32.221Z,15.52
2023-02-28T15:38:36.973Z,16.33
2023-02-28T15:43:40.995Z,16.17
2023-02-28T15:48:52.797Z,15.35
2023-02-28T15:54:01.461Z,16.50
2023-02-28T15:59:07.307Z,16.83
2023-02-28T16:04:18.691Z,15.80
2023-02-28T16:09:20.276Z,16.73
2023-02-28T16:14:31.645Z,21.63
2023-02-28T16:19:34.608Z,15.68
2023-02-28T16:29:38.227Z,19.98
2023-02-28T16:34:39.683Z,16.60
2023-02-28T16:39:42.426Z,17.45
2023-02-28T16:44:44.046Z,16.95
2023-02-28T16:49:45.657Z,17.35
2023-02-28T16:54:47.050Z,17.83
2023-02-28T16:59:51.523Z,15.75
2023-02-28T17:04:52.932Z,17.00
2023-02-28T17:09:54.522Z,19.13
2023-02-28T17:14:55.981Z,16.63
2023-02-28T17:19:57.491Z,20.00
2023-02-28T17:24:59.830Z,18.80
2023-02-28T17:30:01.858Z,21.80
2023-02-28T17:35:03.450Z,19.35
2023-02-28T17:40:05.874Z,21.50
2023-02-28T17:45:07.903Z,21.57
2023-02-28T17:50:16.604Z,19.20
2023-02-28T17:55:19.825Z,19.20
2023-02-28T18:05:26.305Z,19.85
2023-02-28T18:10:28.146Z,18.90
2023-02-28T18:15:29.574Z,23.27
2023-02-28T18:20:31.079Z,22.65
2023-02-28T18:25:32.542Z,22.40
2023-02-28T18:30:37.692Z,25.65
2023-02-28T18:35:39.936Z,22.38
2023-02-28T18:40:42.940Z,24.90
2023-02-28T18:45:44.441Z,23.05
2023-02-28T18:50:47.062Z,26.73
2023-02-28T18:55:48.501Z,26.23
2023-02-28T19:00:50.065Z,23.88
2023-02-28T19:05:59.829Z,22.67
2023-02-28T19:11:10.511Z,31.88
2023-02-28T19:16:14.030Z,34.67
2023-02-28T19:21:18.088Z,32.78
2023-02-28T19:26:22.704Z,31.05
2023-02-28T19:31:25.971Z,29.35
2023-02-28T19:36:28.389Z,30.42
2023-02-28T19:41:30.256Z,27.90
2023-02-28T19:46:32.039Z,28.30
2023-02-28T19:51:34.268Z,30.70
2023-02-28T19:56:35.900Z,29.90
2023-02-28T20:01:38.386Z,22.58
2023-02-28T20:06:39.993Z,20.67
2023-02-28T20:11:41.428Z,20.83
2023-02-28T20:16:44.075Z,22.55
2023-02-28T20:21:45.634Z,20.88
2023-02-28T20:26:47.111Z,23.52
2023-02-28T20:31:48.667Z,25.35
2023-02-28T20:36:50.142Z,24.55
2023-02-28T20:41:51.603Z,23.08
2023-02-28T20:46:53.085Z,20.52
2023-02-28T20:51:54.586Z,22.65
2023-02-28T20:56:56.581Z,23.70
2023-02-28T21:01:58.004Z,24.17
2023-02-28T21:06:59.484Z,22.05
2023-02-28T21:12:00.884Z,28.38
2023-02-28T21:17:02.406Z,23.98
2023-02-28T21:22:04.026Z,20.60
2023-02-28T21:27:05.553Z,26.88
2023-02-28T21:32:07.494Z,24.70
2023-02-28T21:37:10.409Z,21.23
2023-02-28T21:42:12.906Z,21.60
2023-02-28T21:47:14.350Z,23.33
2023-02-28T21:52:15.795Z,21.95
2023-02-28T21:57:17.310Z,26.08
2023-02-28T22:02:18.839Z,22.88
2023-02-28T22:07:20.316Z,20.90
2023-02-28T22:12:21.778Z,21.73
2023-02-28T22:17:23.181Z,28.17
2023-02-28T22:22:25.834Z,20.90
2023-02-28T22:27:27.281Z,23.33
2023-02-28T22:32:28.740Z,27.65
2023-02-28T22:37:30.180Z,26.33
2023-02-28T22:42:34.866Z,24.23
2023-02-28T22:47:36.258Z,21.13
2023-02-28T22:52:40.520Z,23.80
2023-02-28T22:57:42.102Z,19.92
2023-02-28T23:02:44.785Z,24.90
2023-02-28T23:07:46.698Z,23.08
2023-02-28T23:12:51.123Z,22.45
2023-02-28T23:17:52.681Z,22.40
2023-02-28T23:22:54.470Z,22.95
2023-02-28T23:27:56.485Z,26.40
2023-02-28T23:32:58.048Z,28.23
2023-02-28T23:37:59.702Z,21.75
2023-02-28T23:43:01.788Z,24.13
2023-02-28T23:48:04.071Z,22.15
2023-02-28T23:53:05.644Z,24.73
2023-02-28T23:58:07.184Z,29.10
